Time;durP1;ratioP1;P1;durP2;ratioP2;P2;SDS_P1;SDS_P2;PMS_P1;PMS_P2;Temp;Humidity;BMP_temperature;BMP_pressure;BME280_temperature;BME280_humidity;BME280_pressure;Samples;Min_cycle;Max_cycle;Signal;HPM_P1;HPM_P2
2023/10/17 00:00:45;;;;;;;7.20;3.60;;;;;;;6.60;80.47;99309.59;78351;1300;3057619;-72
2023/10/17 00:03:14;;;;;;;6.30;3.60;;;;;;;7.04;78.56;99306.10;78901;1300;3013542;-70
2023/10/17 00:05:41;;;;;;;8.90;3.90;;;;;;;7.06;77.33;99306.72;79559;1297;3013115;-69
2023/10/17 00:08:12;;;;;;;8.20;3.40;;;;;;;6.74;77.95;99314.85;79449;1298;3011910;-74
2023/10/17 00:10:46;;;;;;;5.90;3.30;;;;;;;6.44;78.66;99312.42;78337;1300;3054741;-71
2023/10/17 00:13:38;;;;;;;6.70;3.70;;;;;;;6.23;78.93;99314.05;79618;1299;3011743;-72
2023/10/17 00:16:12;;;;;;;8.30;3.30;;;;;;;5.76;80.69;99310.50;78348;1300;3068900;-72
2023/10/17 00:18:39;;;;;;;5.90;2.70;;;;;;;5.56;82.00;99314.52;79538;1297;3011587;-70
2023/10/17 00:21:23;;;;;;;6.60;3.20;;;;;;;6.26;81.36;99310.05;78119;1297;3056121;-72
2023/10/17 00:23:51;;;;;;;7.20;3.00;;;;;;;6.63;78.64;99309.11;78327;1296;3049569;-71
2023/10/17 00:26:20;;;;;;;6.10;3.20;;;;;;;6.55;78.50;99307.73;79460;1300;3013257;-72
2023/10/17 00:28:51;;;;;;;6.70;3.40;;;;;;;6.25;78.91;99315.52;78908;1300;3011717;-72
2023/10/17 00:31:21;;;;;;;7.20;3.20;;;;;;;5.97;79.36;99317.46;79580;1299;3011897;-72
2023/10/17 00:33:57;;;;;;;9.30;4.20;;;;;;;5.72;80.72;99313.98;78444;1298;3052696;-71
2023/10/17 00:36:26;;;;;;;9.80;5.30;;;;;;;5.61;80.93;99317.08;78298;1297;3067948;-70
2023/10/17 00:38:56;;;;;;;6.30;3.10;;;;;;;5.30;82.80;99322.18;79427;1298;3013125;-70
2023/10/17 00:41:34;;;;;;;11.50;3.90;;;;;;;5.49;82.51;99322.43;78329;1298;3049652;-71
2023/10/17 00:44:04;;;;;;;8.60;3.60;;;;;;;5.87;81.63;99331.59;78243;1300;3053256;-69
2023/10/17 00:46:30;;;;;;;10.10;4.50;;;;;;;6.31;80.11;99332.67;79642;1299;3011816;-70
2023/10/17 00:48:57;;;;;;;7.80;3.40;;;;;;;6.37;78.95;99349.41;79484;1300;3013685;-70
2023/10/17 00:51:24;;;;;;;8.90;3.50;;;;;;;5.85;80.04;99345.41;78211;1303;3068941;-71
2023/10/17 00:53:51;;;;;;;7.20;3.00;;;;;;;5.63;81.09;99352.79;79409;1297;3013159;-72
2023/10/17 00:56:18;;;;;;;7.70;2.90;;;;;;;5.53;81.31;99348.33;79488;1298;3011952;-70
2023/10/17 00:58:46;;;;;;;4.10;2.00;;;;;;;5.32;82.36;99353.36;78335;1300;3027641;-70
2023/10/17 01:01:16;;;;;;;4.60;2.10;;;;;;;5.40;81.91;99358.42;79492;1300;3011600;-71
2023/10/17 01:03:45;;;;;;;6.70;2.00;;;;;;;5.95;81.78;99359.62;78217;1298;3052368;-71
2023/10/17 01:11:45;;;;;;;2.80;1.80;;;;;;;5.92;79.76;99373.47;78274;1295;3049547;-71
2023/10/17 01:14:18;;;;;;;3.80;1.90;;;;;;;5.69;80.75;99368.85;79486;1300;3013027;-69
2023/10/17 01:16:46;;;;;;;4.80;2.70;;;;;;;5.37;81.98;99377.13;78369;1300;3051977;-72
2023/10/17 01:19:17;;;;;;;4.90;2.60;;;;;;;5.03;83.75;99374.50;79464;1297;3013150;-70
2023/10/17 01:21:45;;;;;;;4.00;2.70;;;;;;;4.96;84.41;99376.48;78195;1300;3050003;-71
2023/10/17 01:24:13;;;;;;;6.70;3.00;;;;;;;5.55;83.09;99381.61;79488;1296;3012880;-73
2023/10/17 01:26:44;;;;;;;8.90;3.30;;;;;;;5.77;81.77;99379.30;79578;1298;3013611;-70
2023/10/17 01:29:12;;;;;;;7.10;3.80;;;;;;;5.75;81.40;99381.64;78101;1301;3050074;-71
2023/10/17 01:31:42;;;;;;;6.80;2.90;;;;;;;5.55;82.17;99377.98;79601;1300;3012634;-72
2023/10/17 01:34:11;;;;;;;7.30;5.20;;;;;;;5.46;81.86;99382.70;78976;1297;3011614;-71
2023/10/17 01:36:39;;;;;;;6.70;4.70;;;;;;;5.16;83.38;99379.35;79461;1298;3013259;-70
2023/10/17 01:39:09;;;;;;;7.20;4.60;;;;;;;5.05;83.67;99382.73;78951;1297;3011998;-71
2023/10/17 01:41:38;;;;;;;7.80;3.20;;;;;;;5.01;84.17;99386.88;79445;1297;3013527;-71
2023/10/17 01:44:08;;;;;;;6.10;4.40;;;;;;;5.53;83.37;99384.61;78914;1297;3011166;-71
2023/10/17 01:46:38;;;;;;;6.40;3.50;;;;;;;6.05;81.44;99385.63;79397;1297;3011634;-72
2023/10/17 01:49:12;;;;;;;7.40;3.80;;;;;;;6.09;80.29;99404.05;78242;1300;3025578;-70
2023/10/17 01:51:42;;;;;;;10.00;4.10;;;;;;;5.75;80.73;99398.87;79257;1299;3013200;-70
2023/10/17 01:54:14;;;;;;;7.30;3.40;;;;;;;5.47;81.79;99404.00;79754;1297;3014571;-71
2023/10/17 01:56:47;;;;;;;5.20;3.30;;;;;;;5.23;82.38;99409.83;78534;1297;3069185;-73
2023/10/17 01:59:17;;;;;;;4.10;2.50;;;;;;;5.08;82.65;99405.88;79424;1300;3013010;-71
2023/10/17 02:01:45;;;;;;;4.00;2.50;;;;;;;5.09;83.37;99414.88;78324;1294;3056030;-69
2023/10/17 02:04:13;;;;;;;5.00;2.60;;;;;;;5.60;82.59;99416.33;79531;1295;3013468;-70
2023/10/17 02:06:40;;;;;;;6.80;2.50;;;;;;;5.84;81.22;99416.23;79500;1294;3011865;-69
2023/10/17 02:09:23;;;;;;;5.60;2.70;;;;;;;5.72;81.11;99422.62;78255;1300;3053383;-71
2023/10/17 02:11:54;;;;;;;3.60;2.20;;;;;;;5.44;81.59;99432.80;78379;1299;3052753;-68
2023/10/17 02:14:21;;;;;;;4.80;2.50;;;;;;;5.19;82.05;99443.14;79682;1294;3013627;-70
2023/10/17 02:16:51;;;;;;;5.60;2.90;;;;;;;4.93;83.06;99438.05;78971;1295;3011973;-69
2023/10/17 02:19:21;;;;;;;3.40;2.00;;;;;;;4.82;83.39;99445.06;79452;1295;3012928;-71
2023/10/17 02:21:50;;;;;;;4.50;2.40;;;;;;;4.96;83.70;99442.79;78195;1302;3053596;-72
2023/10/17 02:24:20;;;;;;;3.70;2.20;;;;;;;5.29;83.44;99449.68;79696;1294;3013201;-71
2023/10/17 02:26:59;;;;;;;2.80;1.90;;;;;;;5.54;81.86;99450.44;78361;1294;3052298;-71
2023/10/17 02:29:31;;;;;;;3.10;2.40;;;;;;;5.25;82.01;99454.73;78323;1295;3070398;-72
2023/10/17 02:31:58;;;;;;;5.60;2.90;;;;;;;5.08;82.39;99447.73;79520;1294;3011691;-72
2023/10/17 02:34:29;;;;;;;6.00;3.10;;;;;;;4.85;83.36;99450.86;78315;1300;3028336;-71
2023/10/17 02:36:56;;;;;;;5.90;4.00;;;;;;;4.60;84.60;99448.66;79520;1295;3011639;-70
2023/10/17 02:39:25;;;;;;;8.50;3.70;;;;;;;4.54;85.05;99451.80;79103;1294;3011989;-70
2023/10/17 02:42:02;;;;;;;10.40;4.80;;;;;;;5.08;84.69;99456.23;79751;1297;3019179;-73
2023/10/17 02:44:31;;;;;;;9.30;5.20;;;;;;;5.38;82.99;99458.04;78635;1297;3053180;-72
2023/10/17 02:46:58;;;;;;;8.00;4.80;;;;;;;5.38;82.31;99454.20;79702;1294;3012857;-70
2023/10/17 02:49:27;;;;;;;6.10;5.20;;;;;;;5.14;82.90;99458.08;79657;1291;3011808;-72
2023/10/17 02:51:55;;;;;;;6.50;4.40;;;;;;;4.81;83.98;99456.38;78361;1291;3050463;-73
2023/10/17 02:54:27;;;;;;;7.60;5.10;;;;;;;4.73;84.24;99469.15;79753;1297;3013103;-72
2023/10/17 02:56:54;;;;;;;5.70;2.90;;;;;;;4.65;84.65;99465.80;78480;1297;3052556;-69
2023/10/17 02:59:23;;;;;;;4.10;2.80;;;;;;;5.01;84.61;99464.15;79918;1292;3011669;-71
2023/10/17 03:01:53;;;;;;;4.20;2.60;;;;;;;5.70;82.33;99466.16;79640;1294;3012995;-70
2023/10/17 03:04:23;;;;;;;4.50;2.60;;;;;;;5.61;80.65;99462.52;78443;1295;3055343;-72
2023/10/17 03:06:58;;;;;;;7.20;3.10;;;;;;;5.43;81.36;99468.25;79763;1291;3011577;-73
2023/10/17 03:14:39;;;;;;;3.10;2.20;;;;;;;4.65;83.77;99468.58;79233;1297;3011717;-70
2023/10/17 03:17:07;;;;;;;7.10;2.80;;;;;;;5.07;83.99;99471.17;78572;1297;3051781;-71
2023/10/17 03:19:34;;;;;;;5.40;3.30;;;;;;;5.42;82.57;99469.48;79728;1297;3015077;-70
2023/10/17 03:22:16;;;;;;;5.80;3.60;;;;;;;5.51;81.41;99480.44;79770;1295;3011227;-68
2023/10/17 03:24:44;;;;;;;8.40;3.60;;;;;;;5.15;82.21;99478.00;78579;1292;3050909;-69
2023/10/17 03:27:26;;;;;;;6.50;3.20;;;;;;;4.93;82.72;99482.84;79926;1295;3013279;-73
2023/10/17 03:29:54;;;;;;;8.00;4.00;;;;;;;4.74;83.29;99488.05;78588;1294;3051128;-70
2023/10/17 03:32:23;;;;;;;3.40;2.30;;;;;;;4.73;83.54;99492.41;79693;1294;3013447;-71
2023/10/17 03:34:58;;;;;;;6.40;3.20;;;;;;;5.12;83.13;99484.40;79771;1296;3013335;-71
2023/10/17 03:39:57;;;;;;;5.20;3.20;;;;;;;5.37;81.88;99495.42;79958;1295;3014318;-69
2023/10/17 03:42:53;;;;;;;8.20;4.30;;;;;;;5.13;82.04;99491.65;78668;1294;3054649;-72
2023/10/17 03:45:19;;;;;;;5.80;2.70;;;;;;;4.61;83.82;99490.05;78647;1297;3050638;-70
2023/10/17 03:47:59;;;;;;;6.10;3.80;;;;;;;4.49;84.38;99491.18;79832;1296;3012209;-71
2023/10/17 03:50:48;;;;;;;6.70;3.80;;;;;;;4.42;85.28;99494.73;78587;1294;3051964;-71
2023/10/17 03:53:28;;;;;;;9.60;3.60;;;;;;;5.03;83.67;99497.73;78601;1296;3068282;-71
2023/10/17 03:56:00;;;;;;;7.90;3.10;;;;;;;5.10;82.76;99496.59;78680;1296;3052569;-70
2023/10/17 04:01:00;;;;;;;7.90;3.90;;;;;;;4.90;82.61;99507.95;78501;1296;3048957;-71
2023/10/17 04:03:30;;;;;;;6.10;4.10;;;;;;;4.64;83.50;99509.06;79713;1294;3011865;-71
2023/10/17 04:08:48;;;;;;;6.40;3.00;;;;;;;4.98;84.21;99512.88;78446;1297;3051929;-70
2023/10/17 04:14:01;;;;;;;6.40;4.10;;;;;;;5.09;82.87;99516.11;79722;1294;3011497;-69
2023/10/17 04:16:34;;;;;;;7.30;3.50;;;;;;;4.55;84.19;99521.86;78350;1295;3051542;-71
2023/10/17 04:19:01;;;;;;;4.00;2.80;;;;;;;4.44;84.67;99538.52;79590;1294;3011764;-71
2023/10/17 04:24:05;;;;;;;3.90;2.90;;;;;;;5.49;83.14;99534.21;79808;1296;3013253;-71
2023/10/17 04:26:42;;;;;;;5.70;3.10;;;;;;;5.43;81.22;99540.20;78712;1296;3050578;-71
2023/10/17 04:29:17;;;;;;;6.00;3.20;;;;;;;5.15;81.96;99538.79;78547;1294;3051735;-71
2023/10/17 04:31:47;;;;;;;8.30;4.00;;;;;;;4.86;82.93;99542.81;78553;1297;3051808;-69
2023/10/17 04:34:21;;;;;;;5.10;3.30;;;;;;;4.54;84.06;99547.89;79732;1297;3011810;-69
2023/10/17 04:36:53;;;;;;;3.10;2.20;;;;;;;4.40;84.74;99556.55;78549;1292;3052417;-72
2023/10/17 04:39:35;;;;;;;5.40;3.40;;;;;;;4.86;85.24;99554.57;79763;1297;3012979;-70
2023/10/17 04:42:05;;;;;;;5.20;3.50;;;;;;;5.07;83.48;99554.73;78529;1297;3049530;-72
2023/10/17 04:44:34;;;;;;;8.10;4.20;;;;;;;5.27;83.22;99557.79;79717;1295;3012851;-70
2023/10/17 04:49:35;;;;;;;5.90;3.80;;;;;;;4.79;83.63;99570.64;79785;1296;3013594;-73
2023/10/17 04:52:10;;;;;;;7.30;2.80;;;;;;;4.68;84.28;99576.92;78632;1294;3068999;-70
2023/10/17 04:57:18;;;;;;;6.50;4.20;;;;;;;5.17;83.93;99572.59;79798;1295;3018304;-70
2023/10/17 06:17:24;;;;;;;8.70;4.80;;;;;;;6.15;80.15;99695.28;78637;1295;3052454;-74
2023/10/17 06:19:51;;;;;;;10.80;5.80;;;;;;;6.09;80.55;99702.48;79954;1295;3011959;-75
2023/10/17 06:25:18;;;;;;;9.10;4.60;;;;;;;7.00;80.74;99702.83;79849;1295;3013069;-73
2023/10/17 06:30:28;;;;;;;7.30;5.30;;;;;;;7.44;77.17;99696.46;78511;1295;3049477;-72
2023/10/17 06:35:38;;;;;;;8.80;5.20;;;;;;;7.09;77.38;99703.70;78460;1293;3052834;-69
2023/10/17 06:38:05;;;;;;;10.80;5.70;;;;;;;6.92;77.98;99702.68;79855;1296;3011696;-73
2023/10/17 06:40:37;;;;;;;8.40;5.80;;;;;;;6.77;78.37;99705.17;78714;1291;3028348;-69
2023/10/17 06:43:13;;;;;;;7.60;5.30;;;;;;;6.71;78.34;99706.48;79778;1296;3011523;-72
2023/10/17 06:45:53;;;;;;;5.90;3.40;;;;;;;6.75;79.15;99702.31;78541;1295;3056803;-69
2023/10/17 06:48:31;;;;;;;8.70;4.40;;;;;;;7.63;75.92;99702.93;78495;1296;3050930;-70
2023/10/17 06:53:37;;;;;;;7.60;4.70;;;;;;;7.66;75.47;99706.96;79507;1293;3013119;-71
2023/10/17 06:56:09;;;;;;;7.00;5.00;;;;;;;7.48;75.55;99710.04;79956;1297;3011419;-72
2023/10/17 06:58:37;;;;;;;9.40;5.20;;;;;;;7.40;75.60;99711.23;78466;1297;3053717;-73
2023/10/17 07:01:19;;;;;;;8.20;5.10;;;;;;;7.12;76.34;99718.02;79851;1295;3013174;-72
2023/10/17 07:03:47;;;;;;;10.60;5.00;;;;;;;7.06;76.57;99719.69;78755;1292;3051254;-74
2023/10/17 07:06:13;;;;;;;11.50;5.50;;;;;;;6.97;76.72;99716.37;79901;1295;3013163;-74
2023/10/17 07:08:41;;;;;;;9.60;6.00;;;;;;;6.92;77.40;99715.05;79937;1295;3011777;-70
2023/10/17 07:16:42;;;;;;;6.90;4.00;;;;;;;8.15;75.02;99729.00;78513;1297;3052545;-71
2023/10/17 07:22:05;;;;;;;9.40;5.00;;;;;;;8.36;72.92;99731.04;78464;1295;3069636;-70
2023/10/17 07:24:42;;;;;;;7.10;4.60;;;;;;;8.07;72.76;99729.55;78637;1296;3052098;-70
2023/10/17 07:27:22;;;;;;;6.50;4.60;;;;;;;7.87;73.40;99726.27;78659;1295;3056692;-71
2023/10/17 07:32:49;;;;;;;9.70;5.70;;;;;;;7.81;74.25;99725.52;78730;1293;3053336;-72
2023/10/17 07:35:30;;;;;;;9.10;4.90;;;;;;;7.73;74.89;99724.11;78637;1294;3048692;-72
2023/10/17 07:38:00;;;;;;;6.70;4.80;;;;;;;7.64;74.58;99730.59;78552;1295;3053473;-72
2023/10/17 07:43:01;;;;;;;12.80;5.70;;;;;;;7.68;74.28;99729.88;78461;1295;3068378;-70
2023/10/17 07:45:38;;;;;;;10.80;5.80;;;;;;;7.66;74.32;99730.52;79750;1296;3018688;-72
2023/10/17 07:48:20;;;;;;;10.70;6.30;;;;;;;7.72;73.99;99729.03;78709;1294;3049958;-68
2023/10/17 07:50:52;;;;;;;9.10;5.40;;;;;;;7.73;73.45;99730.21;78489;1297;3053290;-72
2023/10/17 07:53:22;;;;;;;8.70;5.70;;;;;;;7.80;73.17;99733.92;79774;1298;3012741;-70
2023/10/17 07:55:54;;;;;;;9.60;6.00;;;;;;;7.72;73.43;99739.52;78716;1304;3052034;-70
2023/10/17 07:59:30;;;;;;;13.60;6.60;;;;;;;7.73;73.36;99738.55;79982;1296;3011612;-68
2023/10/17 08:01:19;;;;;;;9.50;5.70;;;;;;;7.76;73.76;99744.37;78507;1292;3069522;-71
2023/10/17 08:03:54;;;;;;;11.60;6.00;;;;;;;7.69;73.34;99748.48;79901;1292;3012912;-72
2023/10/17 08:06:23;;;;;;;11.90;6.40;;;;;;;7.46;73.32;99753.15;78589;1295;3050244;-68
2023/10/17 08:08:50;;;;;;;12.00;6.40;;;;;;;7.38;73.38;99761.17;79841;1295;3013092;-72
2023/10/17 08:11:36;;;;;;;13.30;6.40;;;;;;;7.49;73.67;99765.25;80142;1293;3011640;-72
2023/10/17 08:14:16;;;;;;;8.60;5.30;;;;;;;7.55;73.82;99768.29;78504;1298;3052521;-74
2023/10/17 08:16:46;;;;;;;10.70;6.30;;;;;;;7.44;73.46;99784.27;78673;1295;3069647;-72
2023/10/17 08:19:14;;;;;;;12.80;6.80;;;;;;;7.26;73.89;99779.98;79730;1297;3012978;-72
2023/10/17 08:22:17;;;;;;;12.00;6.90;;;;;;;7.34;73.87;99775.80;79282;1293;3012777;-71
2023/10/17 08:24:40;;;;;;;9.40;5.70;;;;;;;7.47;73.60;99777.02;78807;1295;3049044;-72
2023/10/17 08:27:17;;;;;;;15.10;7.40;;;;;;;7.64;73.27;99783.27;79772;1297;3011788;-70
2023/10/17 08:29:49;;;;;;;12.80;7.50;;;;;;;7.56;73.40;99781.49;78561;1295;3050431;-74
2023/10/17 08:34:48;;;;;;;11.30;7.10;;;;;;;7.53;73.02;99787.58;78573;1295;3051392;-70
2023/10/17 08:37:19;;;;;;;14.90;7.60;;;;;;;7.64;72.38;99788.31;79943;1297;3020409;-70
2023/10/17 08:42:14;;;;;;;11.50;7.20;;;;;;;7.90;71.25;99783.88;79885;1295;3013052;-72
2023/10/17 08:44:42;;;;;;;13.40;7.10;;;;;;;7.98;70.67;99787.52;79882;1295;3011526;-72
2023/10/17 08:47:16;;;;;;;12.10;7.30;;;;;;;7.89;70.86;99787.23;78654;1295;3052745;-72
2023/10/17 08:49:48;;;;;;;13.00;7.30;;;;;;;7.90;71.02;99783.68;79329;1304;3011584;-72
2023/10/17 08:52:23;;;;;;;16.20;7.40;;;;;;;8.16;70.79;99783.56;79832;1295;3011578;-70
2023/10/17 08:54:51;;;;;;;14.90;7.70;;;;;;;8.15;70.04;99788.14;78651;1293;3070187;-71
2023/10/17 08:57:19;;;;;;;11.90;7.70;;;;;;;8.03;69.78;99793.59;79883;1292;3013662;-70
2023/10/17 09:02:29;;;;;;;10.60;6.70;;;;;;;7.88;70.16;99787.97;78601;1295;3054121;-75
2023/10/17 09:05:05;;;;;;;8.90;6.50;;;;;;;8.02;70.19;99787.52;78536;1296;3050754;-74
2023/10/17 09:07:42;;;;;;;12.70;6.70;;;;;;;8.11;69.48;99783.27;78628;1293;3052425;-72
2023/10/17 09:15:49;;;;;;;10.90;6.10;;;;;;;8.27;69.22;99790.05;79716;1297;3013379;-67
2023/10/17 09:18:40;;;;;;;10.90;7.00;;;;;;;8.36;69.08;99787.20;78504;1297;3057658;-69
2023/10/17 09:21:08;;;;;;;13.00;7.30;;;;;;;8.37;68.81;99785.39;78619;1295;3049223;-70
2023/10/17 09:23:38;;;;;;;15.30;7.60;;;;;;;8.32;68.76;99797.48;79740;1292;3013252;-72
2023/10/17 09:26:12;;;;;;;12.80;6.50;;;;;;;8.17;68.65;99796.27;78553;1295;3052059;-71
2023/10/17 09:28:41;;;;;;;14.00;7.70;;;;;;;8.23;69.01;99799.12;79815;1293;3012900;-68
2023/10/17 09:31:11;;;;;;;12.50;6.30;;;;;;;8.24;68.82;99798.39;78612;1295;3068920;-68
2023/10/17 09:33:48;;;;;;;11.70;6.60;;;;;;;8.42;68.41;99789.72;79994;1295;3011745;-71
2023/10/17 09:36:17;;;;;;;9.20;6.70;;;;;;;8.41;67.90;99793.95;78739;1295;3056607;-71
2023/10/17 09:38:44;;;;;;;12.90;7.20;;;;;;;8.30;67.97;99795.52;80087;1295;3013560;-71
2023/10/17 09:41:17;;;;;;;9.70;6.10;;;;;;;8.32;68.56;99791.23;79770;1294;3013305;-71
2023/10/17 09:43:49;;;;;;;13.20;6.90;;;;;;;8.44;68.83;99787.34;78720;1294;3051962;-70
2023/10/17 09:46:16;;;;;;;8.70;6.00;;;;;;;8.58;68.74;99787.09;79995;1297;3013190;-69
2023/10/17 09:48:46;;;;;;;11.50;6.30;;;;;;;8.63;67.94;99785.81;78626;1298;3028488;-67
2023/10/17 09:51:20;;;;;;;11.50;5.80;;;;;;;8.58;67.42;99777.10;79898;1293;3012987;-70
2023/10/17 09:53:53;;;;;;;11.40;6.00;;;;;;;8.47;67.30;99779.89;78911;1293;3056690;-70
2023/10/17 09:56:26;;;;;;;7.80;5.20;;;;;;;8.60;67.20;99780.35;79778;1292;3012924;-68
2023/10/17 09:58:58;;;;;;;7.10;4.90;;;;;;;8.68;67.50;99778.39;78437;1292;3052723;-70
2023/10/17 10:01:25;;;;;;;6.80;4.80;;;;;;;8.68;67.76;99781.02;79859;1292;3013743;-72
2023/10/17 10:03:56;;;;;;;7.70;5.20;;;;;;;8.75;67.82;99779.10;79369;1295;3013119;-69
2023/10/17 10:06:23;;;;;;;11.10;5.90;;;;;;;8.79;67.89;99776.66;79750;1295;3015009;-73
2023/10/17 10:08:56;;;;;;;10.40;5.80;;;;;;;8.80;68.30;99774.90;79331;1293;3011884;-73
2023/10/17 10:11:50;;;;;;;8.90;5.70;;;;;;;8.79;67.51;99771.23;79822;1293;3011597;-75
2023/10/17 10:14:21;;;;;;;12.20;6.20;;;;;;;8.72;67.67;99772.48;78539;1293;3058145;-69
2023/10/17 10:16:59;;;;;;;8.90;5.90;;;;;;;8.94;66.46;99768.77;79995;1295;3011738;-71
2023/10/17 10:19:48;;;;;;;8.00;5.40;;;;;;;9.17;66.58;99770.92;78478;1293;3053527;-73
2023/10/17 10:22:16;;;;;;;12.10;5.50;;;;;;;9.42;65.76;99765.52;78714;1295;3049845;-69
2023/10/17 10:24:46;;;;;;;15.00;5.80;;;;;;;9.41;65.96;99773.57;79863;1297;3013495;-70
2023/10/17 10:27:15;;;;;;;14.30;6.40;;;;;;;9.29;65.47;99776.85;78580;1295;3068598;-75
2023/10/17 10:29:42;;;;;;;12.70;5.90;;;;;;;9.31;65.63;99777.09;79774;1294;3013217;-73
2023/10/17 10:32:33;;;;;;;12.30;6.30;;;;;;;9.25;65.63;99774.23;79813;1297;3013406;-75
2023/10/17 10:35:03;;;;;;;8.80;5.40;;;;;;;9.34;66.23;99773.95;78646;1294;3054771;-73
2023/10/17 10:37:32;;;;;;;8.60;5.00;;;;;;;9.40;66.05;99778.23;79814;1292;3013405;-73
2023/10/17 10:40:16;;;;;;;8.50;4.60;;;;;;;9.17;66.31;99784.61;78875;1295;3026258;-72
2023/10/17 10:42:47;;;;;;;7.00;4.20;;;;;;;9.07;66.41;99772.65;79805;1295;3052553;-71
2023/10/17 10:45:36;;;;;;;6.40;4.70;;;;;;;9.00;66.80;99766.36;81582;1292;3011482;-71
2023/10/17 10:48:24;;;;;;;9.00;4.80;;;;;;;8.94;67.81;99768.75;78897;1292;3051723;-71
2023/10/17 10:50:55;;;;;;;6.50;4.90;;;;;;;9.00;68.20;99770.06;78530;1295;3056866;-72
2023/10/17 10:53:27;;;;;;;6.30;5.00;;;;;;;8.66;69.58;99766.77;79862;1292;3011954;-69
2023/10/17 10:56:09;;;;;;;5.30;4.60;;;;;;;8.59;71.00;99765.23;78654;1294;3052256;-71
2023/10/17 10:58:55;;;;;;;6.80;4.90;;;;;;;8.57;71.14;99767.20;78475;1295;3052258;-69
2023/10/17 11:01:23;;;;;;;7.30;5.00;;;;;;;8.52;71.23;99762.93;78536;1295;3052401;-70
2023/10/17 11:03:50;;;;;;;6.10;4.20;;;;;;;8.55;71.67;99761.38;79855;1295;3013525;-70
2023/10/17 11:06:23;;;;;;;7.40;4.80;;;;;;;8.58;71.39;99760.02;79694;1295;3011595;-71
2023/10/17 11:08:51;;;;;;;8.80;5.00;;;;;;;8.48;71.49;99762.23;78600;1295;3057114;-70
2023/10/17 11:11:19;;;;;;;8.80;5.30;;;;;;;8.49;71.09;99755.72;79792;1293;3013533;-69
2023/10/17 11:13:47;;;;;;;8.20;4.90;;;;;;;8.61;70.63;99750.08;79834;1292;3011628;-71
2023/10/17 11:16:20;;;;;;;9.60;5.00;;;;;;;8.72;69.66;99750.29;78570;1294;3052559;-71
2023/10/17 11:18:47;;;;;;;6.90;4.50;;;;;;;8.76;68.14;99750.91;79805;1292;3014310;-72
2023/10/17 11:21:19;;;;;;;7.40;4.80;;;;;;;8.78;67.58;99754.89;78609;1295;3068914;-71
2023/10/17 11:23:52;;;;;;;7.70;5.20;;;;;;;9.00;67.49;99751.69;79781;1294;3012629;-71
2023/10/17 11:26:25;;;;;;;10.00;5.20;;;;;;;9.23;67.16;99751.95;78457;1293;3055978;-71
2023/10/17 11:28:52;;;;;;;;;;;;;;;9.35;65.07;99753.45;79854;1297;3011647;-71
2023/10/17 11:31:23;;;;;;;10.00;4.60;;;;;;;9.19;65.28;99753.20;78557;1292;3053760;-73
2023/10/17 11:33:54;;;;;;;5.30;4.50;;;;;;;9.15;65.56;99759.54;79830;1293;3013029;-71
2023/10/17 11:36:23;;;;;;;14.60;5.60;;;;;;;9.05;65.28;99764.21;78538;1296;3052611;-71
2023/10/17 11:38:56;;;;;;;10.70;5.50;;;;;;;9.01;65.28;99761.97;79794;1294;3013718;-71
2023/10/17 11:41:59;;;;;;;7.40;5.60;;;;;;;9.00;65.98;99762.34;78850;1292;3051040;-71
2023/10/17 11:44:23;;;;;;;9.70;5.90;;;;;;;9.02;65.76;99756.33;78598;1295;3056218;-76
2023/10/17 11:47:01;;;;;;;10.60;5.60;;;;;;;9.27;64.89;99754.23;79770;1292;3011909;-71
2023/10/17 11:49:30;;;;;;;9.40;5.80;;;;;;;9.38;64.43;99753.48;78841;1293;3053000;-72
2023/10/17 11:52:10;;;;;;;8.60;6.10;;;;;;;9.41;64.33;99753.81;79812;1296;3013074;-71
2023/10/17 11:55:16;;;;;;;11.50;6.50;;;;;;;9.36;63.89;99754.42;78596;1296;3052553;-70
2023/10/17 11:57:49;;;;;;;18.20;9.30;;;;;;;9.27;65.51;99755.21;78554;1295;3068337;-71
2023/10/17 12:02:47;;;;;;;12.20;9.00;;;;;;;9.27;63.70;99761.52;78467;1294;3055696;-72
2023/10/17 12:05:22;;;;;;;17.00;7.30;;;;;;;9.10;63.52;99760.09;79708;1297;3012757;-70
2023/10/17 12:07:58;;;;;;;12.50;7.60;;;;;;;9.16;63.73;99762.77;78563;1295;3053612;-70
2023/10/17 12:10:26;;;;;;;11.20;7.20;;;;;;;9.18;63.84;99759.00;78264;1295;3049347;-71
2023/10/17 12:12:58;;;;;;;13.40;6.40;;;;;;;9.25;63.88;99766.21;79637;1297;3018711;-72
2023/10/17 12:15:28;;;;;;;12.50;6.10;;;;;;;9.17;63.23;99760.80;78438;1298;3069608;-71
2023/10/17 12:17:55;;;;;;;14.20;6.70;;;;;;;9.08;63.38;99760.92;79754;1295;3012761;-71
2023/10/17 12:20:27;;;;;;;12.90;6.60;;;;;;;9.13;62.95;99762.21;79858;1294;3011625;-69
2023/10/17 12:22:56;;;;;;;13.40;6.20;;;;;;;9.33;63.01;99758.45;78567;1297;3053166;-71
2023/10/17 12:25:25;;;;;;;20.60;6.90;;;;;;;9.33;62.94;99766.50;79668;1298;3013577;-71
2023/10/17 12:27:56;;;;;;;14.20;6.50;;;;;;;9.20;63.00;99767.84;78423;1298;3051531;-73
2023/10/17 12:30:26;;;;;;;17.90;6.00;;;;;;;9.13;62.24;99762.95;79660;1294;3013820;-71
2023/10/17 12:32:57;;;;;;;15.10;5.40;;;;;;;9.06;61.85;99761.70;78527;1296;3051230;-70
2023/10/17 12:35:27;;;;;;;12.80;5.60;;;;;;;9.15;61.75;99765.65;79537;1294;3011860;-74
2023/10/17 12:37:57;;;;;;;10.50;5.40;;;;;;;9.27;61.65;99762.60;78588;1295;3048287;-72
2023/10/17 12:40:26;;;;;;;12.80;4.40;;;;;;;9.20;60.23;99764.69;79816;1292;3012811;-73
2023/10/17 12:42:57;;;;;;;8.20;3.80;;;;;;;9.26;60.49;99765.61;78587;1293;3029539;-72
2023/10/17 12:45:24;;;;;;;10.00;3.90;;;;;;;9.22;59.41;99767.73;79565;1298;3011877;-72
2023/10/17 12:47:54;;;;;;;6.40;4.00;;;;;;;9.08;58.90;99763.90;78334;1295;3027091;-70
2023/10/17 12:50:20;;;;;;;8.40;3.80;;;;;;;9.07;59.09;99758.70;79614;1294;3013528;-70
2023/10/17 12:52:47;;;;;;;7.00;3.20;;;;;;;9.14;58.51;99763.04;79562;1293;3011632;-72
2023/10/17 12:55:19;;;;;;;11.30;3.00;;;;;;;9.48;58.02;99763.27;78493;1294;3049725;-70
2023/10/17 12:57:45;;;;;;;15.90;3.00;;;;;;;9.72;56.73;99763.44;79830;1297;3013435;-72
2023/10/17 13:00:15;;;;;;;10.00;3.10;;;;;;;9.97;55.94;99762.98;79286;1292;3013409;-71
2023/10/17 13:02:43;;;;;;;7.10;2.70;;;;;;;10.01;55.82;99760.16;80006;1295;3014943;-71
2023/10/17 13:05:10;;;;;;;6.80;2.60;;;;;;;9.77;55.73;99769.98;79674;1298;3011908;-72
2023/10/17 13:07:38;;;;;;;4.60;2.30;;;;;;;9.85;55.34;99763.25;78564;1292;3052824;-71
2023/10/17 13:10:08;;;;;;;8.30;2.50;;;;;;;9.82;55.27;99767.67;79880;1293;3014566;-72
2023/10/17 13:12:39;;;;;;;4.30;2.30;;;;;;;9.83;55.49;99764.77;79593;1295;3012095;-72
2023/10/17 13:15:08;;;;;;;4.90;1.90;;;;;;;9.79;54.46;99771.12;79747;1291;3013626;-71
2023/10/17 13:17:36;;;;;;;8.40;2.20;;;;;;;9.85;53.23;99769.39;78602;1297;3025734;-71
2023/10/17 13:20:10;;;;;;;4.80;1.90;;;;;;;9.86;52.67;99783.35;79936;1295;3013182;-71
2023/10/17 13:22:47;;;;;;;3.90;2.10;;;;;;;9.85;52.53;99773.23;78689;1295;3069113;-73
2023/10/17 13:25:18;;;;;;;3.20;2.10;;;;;;;9.96;52.11;99776.35;78682;1295;3049987;-72
2023/10/17 13:27:45;;;;;;;4.60;2.10;;;;;;;9.94;51.74;99771.77;79952;1292;3012739;-72
2023/10/17 13:30:14;;;;;;;4.40;2.30;;;;;;;9.93;52.05;99778.94;79271;1296;3013084;-72
2023/10/17 13:32:41;;;;;;;6.00;2.00;;;;;;;9.82;52.09;99782.33;79910;1294;3012970;-71
2023/10/17 13:35:07;;;;;;;4.90;2.00;;;;;;;9.91;52.23;99775.40;79827;1295;3013785;-72
2023/10/17 13:37:36;;;;;;;3.70;2.00;;;;;;;9.98;51.08;99776.25;78585;1294;3026124;-71
2023/10/17 13:40:03;;;;;;;5.10;2.50;;;;;;;10.01;50.27;99780.81;79762;1293;3013234;-73
2023/10/17 13:42:32;;;;;;;4.30;2.10;;;;;;;10.00;49.45;99780.16;79864;1292;3012967;-72
2023/10/17 13:45:00;;;;;;;4.90;2.10;;;;;;;9.86;48.84;99777.23;78472;1296;3050137;-71
2023/10/17 13:47:26;;;;;;;5.60;2.10;;;;;;;9.90;48.83;99784.02;80012;1294;3018334;-72
2023/10/17 13:49:54;;;;;;;8.30;2.60;;;;;;;9.94;48.75;99779.27;79733;1295;3011717;-72
2023/10/17 13:52:22;;;;;;;5.80;2.50;;;;;;;10.09;49.23;99777.39;78641;1295;3052874;-72
2023/10/17 13:54:49;;;;;;;5.00;2.40;;;;;;;10.16;49.38;99785.27;79927;1293;3013036;-74
2023/10/17 13:57:16;;;;;;;5.80;2.90;;;;;;;10.28;50.09;99781.46;79830;1293;3011625;-73
2023/10/17 13:59:46;;;;;;;8.10;2.80;;;;;;;10.38;50.25;99776.74;78665;1294;3049280;-72
2023/10/17 14:02:17;;;;;;;9.20;3.20;;;;;;;10.45;50.39;99780.27;79983;1294;3013821;-72
2023/10/17 14:04:45;;;;;;;9.50;2.90;;;;;;;10.53;50.76;99777.48;78619;1295;3049101;-72
2023/10/17 14:07:12;;;;;;;12.80;3.10;;;;;;;10.65;50.72;99781.59;79909;1295;3013789;-73
2023/10/17 14:09:42;;;;;;;9.80;3.70;;;;;;;10.69;50.61;99781.54;79833;1294;3013030;-74